createdAt,value
2022-08-02T00:02:21.034Z,101205.59
2022-08-02T00:04:47.855Z,101199.78
2022-08-02T00:07:15.139Z,101202.81
2022-08-02T00:09:42.394Z,101206.72
2022-08-02T00:12:09.366Z,101205.53
2022-08-02T00:14:35.987Z,101214.66
2022-08-02T00:17:02.421Z,101205.13
2022-08-02T00:19:28.851Z,101208.41
2022-08-02T00:21:55.259Z,101204.22
2022-08-02T00:24:32.151Z,101207.75
2022-08-02T00:26:59.106Z,101208.53
2022-08-02T00:29:25.686Z,101207.97
2022-08-02T00:31:52.123Z,101206.78
2022-08-02T00:34:30.218Z,101209.47
2022-08-02T00:36:58.793Z,101216.66
2022-08-02T00:39:33.842Z,101219.97
2022-08-02T00:42:02.367Z,101210.75
2022-08-02T00:44:28.908Z,101206.53
2022-08-02T00:46:55.339Z,101211.50
2022-08-02T00:49:21.881Z,101206.44
2022-08-02T00:51:48.328Z,101214.75
2022-08-02T00:54:15.046Z,101220.00
2022-08-02T00:56:49.578Z,101209.59
2022-08-02T00:59:18.214Z,101218.47
2022-08-02T01:01:56.101Z,101218.13
2022-08-02T01:04:30.576Z,101215.00
2022-08-02T01:06:59.501Z,101215.25
2022-08-02T01:09:26.015Z,101214.41
2022-08-02T01:11:52.629Z,101218.28
2022-08-02T01:14:19.537Z,101216.59
2022-08-02T01:16:57.183Z,101209.34
2022-08-02T01:19:48.105Z,101205.94
2022-08-02T01:23:05.300Z,101207.56
2022-08-02T01:25:53.458Z,101204.94
2022-08-02T01:28:43.444Z,101195.63
2022-08-02T01:31:20.898Z,101192.84
2022-08-02T01:34:16.150Z,101193.09
2022-08-02T01:36:55.966Z,101196.94
2022-08-02T01:39:32.095Z,101200.84
2022-08-02T01:42:01.017Z,101204.72
2022-08-02T01:44:30.377Z,101204.72
2022-08-02T01:47:01.313Z,101200.25
2022-08-02T01:49:30.188Z,101199.41
2022-08-02T01:52:17.354Z,101203.53
2022-08-02T01:54:45.564Z,101214.34
2022-08-02T01:57:14.521Z,101211.56
2022-08-02T01:59:44.033Z,101215.06
2022-08-02T02:02:14.437Z,101218.13
2022-08-02T02:04:42.162Z,101212.56
2022-08-02T02:07:09.424Z,101216.94
2022-08-02T02:09:50.340Z,101216.31
2022-08-02T02:12:18.345Z,101218.19
2022-08-02T02:14:51.366Z,101219.53
2022-08-02T02:18:10.853Z,101210.56
2022-08-02T02:20:09.875Z,101212.44
2022-08-02T02:22:36.632Z,101219.81
2022-08-02T02:25:05.007Z,101207.00
2022-08-02T02:27:37.075Z,101207.50
2022-08-02T02:30:05.959Z,101191.31
2022-08-02T02:32:33.889Z,101187.94
2022-08-02T02:35:03.736Z,101190.72
2022-08-02T02:37:32.036Z,101190.09
2022-08-02T02:39:59.202Z,101195.09
2022-08-02T02:42:31.440Z,101181.19
2022-08-02T02:45:00.087Z,101183.97
2022-08-02T02:47:41.621Z,101185.28
2022-08-02T02:50:10.883Z,101198.34
2022-08-02T02:52:39.620Z,101195.56
2022-08-02T02:55:07.856Z,101191.13
2022-08-02T02:57:35.952Z,101183.84
2022-08-02T03:00:04.967Z,101183.84
2022-08-02T03:02:31.925Z,101180.47
2022-08-02T03:05:02.759Z,101188.22
2022-08-02T03:07:29.483Z,101197.28
2022-08-02T03:09:56.040Z,101189.44
2022-08-02T03:12:31.823Z,101180.75
2022-08-02T03:15:00.704Z,101179.56
2022-08-02T03:17:37.565Z,101180.06
2022-08-02T03:20:11.366Z,101186.47
2022-08-02T03:22:37.831Z,101183.91
2022-08-02T03:25:04.546Z,101183.91
2022-08-02T03:27:30.943Z,101187.81
2022-08-02T03:29:57.359Z,101185.03
2022-08-02T03:32:24.610Z,101175.00
2022-08-02T03:34:51.195Z,101175.00
2022-08-02T03:37:17.846Z,101173.78
2022-08-02T03:39:52.589Z,101172.59
2022-08-02T03:42:21.145Z,101180.31
2022-08-02T03:44:49.001Z,101178.63
2022-08-02T03:47:17.168Z,101176.06
2022-08-02T03:49:44.113Z,101173.19
2022-08-02T03:52:11.476Z,101176.22
2022-08-02T03:54:45.807Z,101163.41
2022-08-02T03:57:13.488Z,101166.69
2022-08-02T03:59:45.084Z,101176.72
2022-08-02T04:02:12.983Z,101167.75
2022-08-02T04:04:40.232Z,101178.88
2022-08-02T04:07:07.552Z,101169.09
2022-08-02T04:09:34.310Z,101166.81
2022-08-02T04:12:00.768Z,101164.88
2022-08-02T04:14:27.597Z,101181.56
2022-08-02T04:16:59.402Z,101172.16
2022-08-02T04:19:31.359Z,101181.06
2022-08-02T04:22:04.767Z,101190.00
2022-08-02T04:24:41.687Z,101183.34
2022-08-02T04:27:51.219Z,101178.88
2022-08-02T04:29:58.462Z,101184.94
2022-08-02T04:32:25.105Z,101189.41
2022-08-02T04:35:18.164Z,101189.41
2022-08-02T04:38:08.751Z,101188.56
2022-08-02T04:40:26.164Z,101193.25
2022-08-02T04:42:53.753Z,101195.19
2022-08-02T04:45:21.590Z,101201.59
2022-08-02T04:47:54.257Z,101196.03
2022-08-02T04:50:30.136Z,101201.59
2022-08-02T04:52:56.597Z,101208.88
2022-08-02T04:55:28.221Z,101206.66
2022-08-02T04:57:55.416Z,101205.59
2022-08-02T05:00:22.224Z,101205.34
2022-08-02T05:02:49.568Z,101204.88
2022-08-02T05:05:16.717Z,101193.75
2022-08-02T05:07:43.199Z,101195.53
2022-08-02T05:10:10.271Z,101207.03
2022-08-02T05:12:40.024Z,101208.50
2022-08-02T05:15:07.281Z,101208.25
2022-08-02T05:17:39.236Z,101211.03
2022-08-02T05:20:14.926Z,101207.75
2022-08-02T05:22:42.238Z,101214.28
2022-08-02T05:25:09.221Z,101211.25
2022-08-02T05:27:35.753Z,101214.63
2022-08-02T05:30:02.913Z,101212.78
2022-08-02T05:32:29.341Z,101208.41
2022-08-02T05:34:55.773Z,101208.53
2022-08-02T05:37:22.195Z,101201.38
2022-08-02T05:39:55.713Z,101203.44
2022-08-02T05:42:23.292Z,101210.53
2022-08-02T05:44:49.726Z,101213.75
2022-08-02T05:47:16.241Z,101208.88
2022-08-02T05:49:42.940Z,101212.13
2022-08-02T05:52:16.974Z,101218.47
2022-08-02T05:55:09.740Z,101212.56
2022-08-02T05:58:11.280Z,101213.03
2022-08-02T06:00:40.574Z,101213.22
2022-08-02T06:03:16.919Z,101214.22
2022-08-02T06:06:05.127Z,101210.50
2022-08-02T06:08:39.112Z,101205.94
2022-08-02T06:11:06.965Z,101194.97
2022-08-02T06:13:33.701Z,101190.63
2022-08-02T06:16:00.528Z,101182.41
2022-08-02T06:18:29.137Z,101180.88
2022-08-02T06:22:29.650Z,101179.38
2022-08-02T06:23:57.626Z,101180.59
2022-08-02T06:26:26.977Z,101176.25
2022-08-02T06:28:55.262Z,101180.25
2022-08-02T06:31:21.863Z,101181.75
2022-08-02T06:33:48.510Z,101187.44
2022-08-02T06:36:34.938Z,101185.34
2022-08-02T06:39:18.847Z,101174.88
2022-08-02T06:41:49.985Z,101181.16
2022-08-02T06:47:11.530Z,101175.78
2022-08-02T06:49:52.738Z,101178.41
2022-08-02T06:52:27.722Z,101182.38
2022-08-02T06:54:56.909Z,101183.00
2022-08-02T06:57:23.336Z,101175.81
2022-08-02T06:59:49.737Z,101172.81
2022-08-02T07:02:16.261Z,101169.81
2022-08-02T07:04:42.774Z,101174.91
2022-08-02T07:07:09.336Z,101165.75
2022-08-02T07:09:35.769Z,101166.66
2022-08-02T07:12:02.386Z,101168.94
2022-08-02T07:14:28.922Z,101161.72
2022-08-02T07:16:55.387Z,101158.97
2022-08-02T07:19:21.787Z,101155.34
2022-08-02T07:22:00.768Z,101149.47
2022-08-02T07:24:28.379Z,101149.81
2022-08-02T07:27:10.344Z,101154.59
2022-08-02T07:29:46.548Z,101154.09
2022-08-02T07:32:17.944Z,101150.72
2022-08-02T07:34:51.240Z,101149.34
2022-08-02T07:37:35.066Z,101159.72
2022-08-02T07:40:14.202Z,101155.25
2022-08-02T07:42:43.703Z,101161.41
2022-08-02T07:45:12.506Z,101155.25
2022-08-02T07:47:40.135Z,101150.19
2022-08-02T07:50:08.232Z,101144.03
2022-08-02T07:52:36.097Z,101136.16
2022-08-02T07:55:02.661Z,101144.84
2022-08-02T07:57:29.224Z,101131.06
2022-08-02T07:59:55.655Z,101127.09
2022-08-02T08:02:24.596Z,101126.50
2022-08-02T08:04:51.980Z,101125.63
2022-08-02T08:07:18.455Z,101127.84
2022-08-02T08:09:47.277Z,101128.66
2022-08-02T08:12:15.920Z,101131.13
2022-08-02T08:14:44.245Z,101127.97
2022-08-02T08:17:10.781Z,101127.03
2022-08-02T08:19:51.620Z,101119.94
2022-08-02T08:22:19.366Z,101118.69
2022-08-02T08:24:45.812Z,101115.78
2022-08-02T08:27:14.647Z,101110.63
2022-08-02T08:29:44.875Z,101107.13
2022-08-02T08:32:16.266Z,101113.50
2022-08-02T08:34:45.193Z,101108.59
2022-08-02T08:37:18.248Z,101117.88
2022-08-02T08:39:57.578Z,101100.31
2022-08-02T08:42:28.595Z,101100.50
2022-08-02T08:44:56.711Z,101092.53
2022-08-02T08:47:33.650Z,101086.72
2022-08-02T08:50:05.578Z,101082.06
2022-08-02T08:52:36.757Z,101074.81
2022-08-02T08:55:05.617Z,101081.16
2022-08-02T08:57:39.629Z,101070.25
2022-08-02T09:00:06.905Z,101064.50
2022-08-02T09:02:35.263Z,101064.78
2022-08-02T09:05:01.842Z,101063.63
2022-08-02T09:07:28.633Z,101059.31
2022-08-02T09:09:55.081Z,101064.19
2022-08-02T09:12:22.429Z,101060.16
2022-08-02T09:14:50.179Z,101057.25
2022-08-02T09:17:17.249Z,101052.56
2022-08-02T09:19:45.734Z,101045.69
2022-08-02T09:22:14.796Z,101041.44
2022-08-02T09:24:50.213Z,101051.34
2022-08-02T09:27:25.961Z,101049.53
2022-08-02T09:30:11.606Z,101051.75
2022-08-02T09:32:47.884Z,101061.09
2022-08-02T09:35:30.584Z,101053.81
2022-08-02T09:38:17.231Z,101061.13
2022-08-02T09:40:44.355Z,101062.50
2022-08-02T09:43:10.793Z,101059.75
2022-08-02T09:45:37.722Z,101064.03
2022-08-02T09:48:08.233Z,101056.09
2022-08-02T09:50:37.388Z,101051.91
2022-08-02T09:53:04.234Z,101059.03
2022-08-02T09:55:30.676Z,101052.53
2022-08-02T09:57:57.101Z,101058.72
2022-08-02T10:00:37.442Z,101050.34
2022-08-02T10:03:21.683Z,101045.59
2022-08-02T10:05:56.228Z,101042.72
2022-08-02T10:08:32.964Z,101039.56
2022-08-02T10:11:03.512Z,101042.03
2022-08-02T10:13:34.733Z,101044.34
2022-08-02T10:16:02.594Z,101030.00
2022-08-02T10:18:45.623Z,101027.97
2022-08-02T10:21:19.902Z,101036.16
2022-08-02T10:23:49.622Z,101020.66
2022-08-02T10:26:18.944Z,101030.19
2022-08-02T10:28:47.985Z,101024.50
2022-08-02T10:31:20.768Z,101015.16
2022-08-02T10:33:50.392Z,101003.41
2022-08-02T10:36:18.172Z,101004.59
2022-08-02T10:38:46.270Z,100998.63
2022-08-02T10:41:12.959Z,101000.28
2022-08-02T10:43:42.521Z,100987.09
2022-08-02T10:46:31.805Z,100995.63
2022-08-02T10:49:37.499Z,100992.47
2022-08-02T10:52:05.831Z,100987.78
2022-08-02T10:54:36.940Z,100974.06
2022-08-02T10:57:15.214Z,100975.56
2022-08-02T10:59:42.175Z,100969.16
2022-08-02T11:02:09.284Z,100965.78
2022-08-02T11:04:41.756Z,100963.72
2022-08-02T11:07:10.777Z,100964.34
2022-08-02T11:09:38.173Z,100965.16
2022-08-02T11:12:05.991Z,100963.09
2022-08-02T11:14:35.377Z,100959.31
2022-08-02T11:17:09.485Z,100960.03
2022-08-02T11:20:11.126Z,100966.16
2022-08-02T11:22:41.847Z,100955.78
2022-08-02T11:25:23.762Z,100952.94
2022-08-02T11:28:16.165Z,100951.59
2022-08-02T11:30:42.629Z,100938.59
2022-08-02T11:33:09.136Z,100937.53
2022-08-02T11:35:38.192Z,100944.06
2022-08-02T11:38:21.072Z,100943.94
2022-08-02T11:40:48.869Z,100947.03
2022-08-02T11:43:30.717Z,100944.38
2022-08-02T11:45:57.357Z,100942.81
2022-08-02T11:48:38.312Z,100937.53
2022-08-02T11:51:09.848Z,100935.31
2022-08-02T11:53:53.708Z,100934.91
2022-08-02T11:56:32.503Z,100932.81
2022-08-02T11:59:09.283Z,100929.56
2022-08-02T12:01:45.773Z,100940.50
2022-08-02T12:04:16.735Z,100938.00
2022-08-02T12:06:43.732Z,100932.19
2022-08-02T12:09:17.849Z,100923.34
2022-08-02T12:11:48.976Z,100917.75
2022-08-02T12:14:15.375Z,100913.69
2022-08-02T12:17:00.428Z,100914.25
2022-08-02T12:19:27.770Z,100900.66
2022-08-02T12:22:41.963Z,100906.94
2022-08-02T12:25:34.143Z,100908.31
2022-08-02T12:28:22.097Z,100919.13
2022-08-02T12:30:51.482Z,100915.59
2022-08-02T12:33:18.439Z,100910.00
2022-08-02T12:35:44.892Z,100913.06
2022-08-02T12:38:12.468Z,100908.88
2022-08-02T12:40:39.069Z,100908.84
2022-08-02T12:43:07.793Z,100897.16
2022-08-02T12:45:56.527Z,100910.53
2022-08-02T12:48:37.793Z,100905.94
2022-08-02T12:51:50.734Z,100905.63
2022-08-02T12:54:40.082Z,100895.38
2022-08-02T12:57:11.567Z,100896.09
2022-08-02T12:59:39.947Z,100895.16
2022-08-02T13:02:11.413Z,100890.44
2022-08-02T13:04:38.704Z,100875.34
2022-08-02T13:07:05.724Z,100876.72
2022-08-02T13:09:45.459Z,100861.34
2022-08-02T13:12:12.222Z,100875.16
2022-08-02T13:14:42.010Z,100872.03
2022-08-02T13:17:09.661Z,100868.34
2022-08-02T13:19:36.871Z,100871.63
2022-08-02T13:22:04.064Z,100864.97
2022-08-02T13:24:41.185Z,100862.78
2022-08-02T13:27:18.848Z,100868.66
2022-08-02T13:29:47.079Z,100860.31
2022-08-02T13:32:14.315Z,100861.91
2022-08-02T13:34:41.096Z,100855.84
2022-08-02T13:37:07.508Z,100857.38
2022-08-02T13:39:33.912Z,100868.44
2022-08-02T13:42:00.381Z,100860.06
2022-08-02T13:44:26.815Z,100858.13
2022-08-02T13:46:53.240Z,100850.44
2022-08-02T13:49:20.490Z,100853.44
2022-08-02T13:51:48.725Z,100847.22
2022-08-02T13:54:15.957Z,100850.06
2022-08-02T13:56:42.711Z,100849.41
2022-08-02T13:59:55.234Z,100847.34
2022-08-02T14:01:56.611Z,100843.75
2022-08-02T14:04:24.462Z,100846.84
2022-08-02T14:06:51.190Z,100846.09
2022-08-02T14:09:17.841Z,100838.50
2022-08-02T14:11:45.750Z,100838.22
2022-08-02T14:14:16.694Z,100829.78
2022-08-02T14:16:45.122Z,100828.16
2022-08-02T14:19:16.317Z,100829.22
2022-08-02T14:21:46.913Z,100835.50
2022-08-02T14:24:17.735Z,100829.53
2022-08-02T14:26:44.832Z,100833.09
2022-08-02T14:29:12.947Z,100825.56
2022-08-02T14:31:44.424Z,100823.47
2022-08-02T14:34:11.711Z,100812.56
2022-08-02T14:36:39.118Z,100810.94
2022-08-02T14:39:05.773Z,100819.97
2022-08-02T14:41:33.892Z,100823.34
2022-08-02T14:44:20.360Z,100822.00
2022-08-02T14:46:46.860Z,100810.53
2022-08-02T14:49:14.600Z,100815.47
2022-08-02T14:51:53.488Z,100801.19
2022-08-02T14:54:19.985Z,100806.50
2022-08-02T14:56:46.453Z,100801.84
2022-08-02T14:59:15.353Z,100804.47
2022-08-02T15:01:41.854Z,100813.66
2022-08-02T15:04:08.476Z,100799.19
2022-08-02T15:06:34.881Z,100806.34
2022-08-02T15:09:01.349Z,100795.28
2022-08-02T15:11:27.937Z,100795.59
2022-08-02T15:13:55.010Z,100801.25
2022-08-02T15:16:37.117Z,100796.28
2022-08-02T15:19:12.143Z,100794.63
2022-08-02T15:21:48.937Z,100795.47
2022-08-02T15:24:20.941Z,100793.81
2022-08-02T15:26:48.297Z,100791.44
2022-08-02T15:29:14.704Z,100786.63
2022-08-02T15:31:41.908Z,100782.22
2022-08-02T15:34:08.621Z,100781.06
2022-08-02T15:36:35.184Z,100792.56
2022-08-02T15:39:01.936Z,100786.06
2022-08-02T15:41:28.339Z,100777.22
2022-08-02T15:44:00.646Z,100778.88
2022-08-02T15:46:30.767Z,100784.59
2022-08-02T15:48:58.915Z,100783.00
2022-08-02T15:51:26.686Z,100764.47
2022-08-02T15:53:53.141Z,100769.00
2022-08-02T15:56:23.932Z,100780.50
2022-08-02T15:58:51.740Z,100775.13
2022-08-02T16:01:22.008Z,100769.84
2022-08-02T16:03:48.483Z,100770.28
2022-08-02T16:06:15.782Z,100764.41
2022-08-02T16:08:53.352Z,100764.63
2022-08-02T16:11:21.204Z,100758.97
2022-08-02T16:13:52.934Z,100764.94
2022-08-02T16:16:25.360Z,100768.78
2022-08-02T16:18:51.993Z,100774.56
2022-08-02T16:21:19.295Z,100767.81
2022-08-02T16:24:02.699Z,100770.13
2022-08-02T16:26:34.130Z,100764.88
2022-08-02T16:29:02.377Z,100759.38
2022-08-02T16:31:28.933Z,100747.72
2022-08-02T16:33:57.081Z,100749.53
2022-08-02T16:36:25.027Z,100753.91
2022-08-02T16:38:52.931Z,100743.66
2022-08-02T16:41:19.504Z,100754.88
2022-08-02T16:43:46.030Z,100754.66
2022-08-02T16:46:12.528Z,100745.59
2022-08-02T16:48:39.346Z,100746.63
2022-08-02T16:51:13.759Z,100745.22
2022-08-02T16:54:00.623Z,100740.78
2022-08-02T16:56:30.822Z,100737.94
2022-08-02T16:58:59.482Z,100735.94
2022-08-02T17:01:28.049Z,100736.78
2022-08-02T17:04:14.027Z,100742.75
2022-08-02T17:06:47.852Z,100733.16
2022-08-02T17:10:03.974Z,100743.88
2022-08-02T17:12:05.745Z,100741.00
2022-08-02T17:14:36.636Z,100736.16
2022-08-02T17:17:21.355Z,100732.50
2022-08-02T17:19:47.966Z,100742.78
2022-08-02T17:22:14.739Z,100747.81
2022-08-02T17:24:44.337Z,100746.81
2022-08-02T17:27:17.088Z,100744.16
2022-08-02T17:29:43.597Z,100748.69
2022-08-02T17:32:12.894Z,100741.09
2022-08-02T17:34:39.522Z,100744.91
2022-08-02T17:37:15.400Z,100742.97
2022-08-02T17:39:43.820Z,100744.34
2022-08-02T17:42:19.909Z,100739.66
2022-08-02T17:44:49.170Z,100745.91
2022-08-02T17:47:16.015Z,100755.19
2022-08-02T17:49:48.540Z,100749.78
2022-08-02T17:52:50.304Z,100748.81
2022-08-02T17:55:07.550Z,100747.31
2022-08-02T17:57:57.993Z,100742.22
2022-08-02T18:00:20.755Z,100748.00
2022-08-02T18:02:52.731Z,100751.72
2022-08-02T18:05:22.072Z,100751.78
2022-08-02T18:07:51.923Z,100755.56
2022-08-02T18:10:22.028Z,100757.81
2022-08-02T18:12:49.730Z,100762.13
2022-08-02T18:15:16.219Z,100756.22
2022-08-02T18:17:42.800Z,100754.81
2022-08-02T18:20:11.129Z,100759.81
2022-08-02T18:22:38.151Z,100753.78
2022-08-02T18:25:09.517Z,100757.19
2022-08-02T18:27:38.910Z,100754.69
2022-08-02T18:30:08.051Z,100757.66
2022-08-02T18:33:54.400Z,100748.88
2022-08-02T18:35:21.629Z,100760.53
2022-08-02T18:37:56.706Z,100751.72
2022-08-02T18:40:24.356Z,100762.34
2022-08-02T18:42:50.759Z,100756.00
2022-08-02T18:45:19.488Z,100756.22
2022-08-02T18:47:51.011Z,100766.91
2022-08-02T18:50:18.051Z,100766.94
2022-08-02T18:52:44.722Z,100767.44
2022-08-02T18:55:17.507Z,100763.03
2022-08-02T18:58:19.644Z,100765.34
2022-08-02T19:00:48.217Z,100761.97
2022-08-02T19:03:19.251Z,100767.34
2022-08-02T19:05:53.398Z,100771.75
2022-08-02T19:08:25.496Z,100772.53
2022-08-02T19:10:53.649Z,100767.69
2022-08-02T19:13:23.393Z,100775.22
2022-08-02T19:15:50.053Z,100777.41
2022-08-02T19:18:16.475Z,100786.59
2022-08-02T19:20:48.085Z,100775.56
2022-08-02T19:23:15.199Z,100772.22
2022-08-02T19:25:50.067Z,100786.38
2022-08-02T19:28:16.875Z,100780.84
2022-08-02T19:30:52.919Z,100781.00
2022-08-02T19:33:54.789Z,100795.47
2022-08-02T19:36:09.711Z,100792.09
2022-08-02T19:38:43.424Z,100788.38
2022-08-02T19:41:11.550Z,100792.00
2022-08-02T19:44:25.537Z,100794.00
2022-08-02T19:46:24.769Z,100801.09
2022-08-02T19:48:51.665Z,100797.91
2022-08-02T19:51:54.760Z,100804.84
2022-08-02T19:54:05.628Z,100804.06
2022-08-02T19:56:37.028Z,100796.72
2022-08-02T20:01:52.580Z,100813.88
2022-08-02T20:04:23.378Z,100813.97
2022-08-02T20:06:50.740Z,100815.09
2022-08-02T20:09:22.289Z,100818.97
2022-08-02T20:11:54.509Z,100818.56
2022-08-02T20:14:22.810Z,100822.66
2022-08-02T20:16:54.583Z,100817.47
2022-08-02T20:19:21.794Z,100820.72
2022-08-02T20:21:56.670Z,100833.28
2022-08-02T20:24:27.399Z,100840.19
2022-08-02T20:26:55.117Z,100830.78
2022-08-02T20:29:42.984Z,100834.34
2022-08-02T20:32:12.272Z,100837.75
2022-08-02T20:34:38.736Z,100829.13
2022-08-02T20:38:00.930Z,100834.16
2022-08-02T20:39:51.984Z,100833.84
2022-08-02T20:42:22.797Z,100835.41
2022-08-02T20:44:54.013Z,100839.47
2022-08-02T20:47:27.677Z,100840.81
2022-08-02T20:50:28.013Z,100843.50
2022-08-02T20:53:00.232Z,100844.50
2022-08-02T20:55:27.699Z,100847.41
2022-08-02T20:58:01.067Z,100846.97
2022-08-02T21:00:28.547Z,100849.44
2022-08-02T21:02:55.295Z,100856.31
2022-08-02T21:05:26.732Z,100853.03
2022-08-02T21:08:14.202Z,100861.13
2022-08-02T21:10:43.791Z,100853.56
2022-08-02T21:13:22.672Z,100862.41
2022-08-02T21:15:51.304Z,100854.03
2022-08-02T21:18:25.693Z,100863.38
2022-08-02T21:21:00.994Z,100859.78
2022-08-02T21:23:28.658Z,100868.34
2022-08-02T21:25:56.854Z,100859.41
2022-08-02T21:28:24.863Z,100868.22
2022-08-02T21:31:10.538Z,100859.03
2022-08-02T21:33:56.777Z,100859.94
2022-08-02T21:36:30.741Z,100865.94
2022-08-02T21:38:59.288Z,100867.66
2022-08-02T21:41:38.496Z,100861.59
2022-08-02T21:44:06.202Z,100867.25
2022-08-02T21:46:32.810Z,100867.31
2022-08-02T21:49:01.175Z,100874.13
2022-08-02T21:51:27.658Z,100876.97
2022-08-02T21:54:18.846Z,100868.63
2022-08-02T21:56:42.082Z,100872.69
2022-08-02T21:59:16.378Z,100873.28
2022-08-02T22:01:52.640Z,100880.06
2022-08-02T22:04:19.733Z,100881.25
2022-08-02T22:06:47.000Z,100878.22
2022-08-02T22:09:17.686Z,100886.41
2022-08-02T22:12:02.802Z,100888.16
2022-08-02T22:14:29.251Z,100883.97
2022-08-02T22:16:55.753Z,100892.16
2022-08-02T22:19:22.652Z,100887.72
2022-08-02T22:21:55.297Z,100896.72
2022-08-02T22:24:27.025Z,100894.56
2022-08-02T22:26:57.027Z,100896.88
2022-08-02T22:29:23.475Z,100907.59
2022-08-02T22:31:49.965Z,100906.50
2022-08-02T22:34:37.102Z,100907.38
2022-08-02T22:37:05.966Z,100907.44
2022-08-02T22:39:34.135Z,100906.59
2022-08-02T22:42:06.564Z,100907.13
2022-08-02T22:44:34.780Z,100912.81
2022-08-02T22:47:03.953Z,100915.63
2022-08-02T22:49:39.111Z,100917.34
2022-08-02T22:52:20.169Z,100918.50
2022-08-02T22:54:47.548Z,100917.97
2022-08-02T22:57:13.969Z,100921.94
2022-08-02T22:59:08.351Z,100794.97
2022-08-02T22:59:41.113Z,100919.69
2022-08-02T23:02:08.890Z,100914.94
2022-08-02T23:04:36.546Z,100923.66
2022-08-02T23:07:03.565Z,100911.03
2022-08-02T23:09:30.004Z,100920.00
2022-08-02T23:11:56.492Z,100917.50
2022-08-02T23:14:22.903Z,100923.38
2022-08-02T23:17:08.579Z,100914.19
2022-08-02T23:19:53.325Z,100918.41
2022-08-02T23:22:30.022Z,100921.22
2022-08-02T23:25:00.255Z,100920.41
2022-08-02T23:27:27.423Z,100927.72
2022-08-02T23:29:53.873Z,100927.72
2022-08-02T23:32:25.962Z,100926.06
2022-08-02T23:34:56.322Z,100924.09
2022-08-02T23:37:23.999Z,100928.31
2022-08-02T23:39:50.914Z,100924.41
2022-08-02T23:42:17.637Z,100926.94
2022-08-02T23:44:44.212Z,100928.63
2022-08-02T23:47:11.081Z,100925.25
2022-08-02T23:49:37.958Z,100925.56
2022-08-02T23:52:04.560Z,100922.75
2022-08-02T23:54:30.950Z,100923.28
2022-08-02T23:56:57.418Z,100928.34
2022-08-02T23:59:23.814Z,100922.16
